createdAt,value
2022-10-31T00:02:46.453Z,8.35
2022-10-31T00:08:56.471Z,7.90
2022-10-31T00:14:58.324Z,7.65
2022-10-31T00:21:02.072Z,9.80
2022-10-31T00:27:03.965Z,8.80
2022-10-31T00:33:06.348Z,8.27
2022-10-31T00:39:08.269Z,7.50
2022-10-31T00:45:11.311Z,5.82
2022-10-31T00:51:15.202Z,7.10
2022-10-31T00:57:17.226Z,7.63
2022-10-31T01:03:19.180Z,7.80
2022-10-31T01:09:21.046Z,7.85
2022-10-31T01:15:24.198Z,9.73
2022-10-31T01:21:28.589Z,11.82
2022-10-31T01:27:33.557Z,8.60
2022-10-31T01:33:36.530Z,9.13
2022-10-31T01:39:38.489Z,9.45
2022-10-31T01:45:41.156Z,8.77
2022-10-31T01:52:10.681Z,7.53
2022-10-31T02:04:24.308Z,8.02
2022-10-31T02:10:26.755Z,9.73
2022-10-31T02:16:30.895Z,9.30
2022-10-31T02:22:54.886Z,9.15
2022-10-31T02:28:56.795Z,8.65
2022-10-31T02:34:58.655Z,8.65
2022-10-31T02:41:38.713Z,8.82
2022-10-31T02:47:49.781Z,9.23
2022-10-31T02:53:51.736Z,7.10
2022-10-31T02:59:59.917Z,7.15
2022-10-31T03:06:15.838Z,7.22
2022-10-31T03:12:29.341Z,8.05
2022-10-31T03:18:35.712Z,7.70
2022-10-31T03:24:40.163Z,7.65
2022-10-31T03:30:45.075Z,7.53
2022-10-31T03:36:53.803Z,7.97
2022-10-31T03:43:03.717Z,8.32
2022-10-31T03:49:07.474Z,8.27
2022-10-31T03:55:16.879Z,8.25
2022-10-31T04:01:20.570Z,7.68
2022-10-31T04:07:26.049Z,8.32
2022-10-31T04:13:30.566Z,8.38
2022-10-31T04:19:45.335Z,8.20
2022-10-31T04:25:48.057Z,8.70
2022-10-31T04:31:50.027Z,7.40
2022-10-31T04:37:52.793Z,6.40
2022-10-31T04:43:55.194Z,8.98
2022-10-31T04:49:57.086Z,9.68
2022-10-31T04:56:00.844Z,9.25
2022-10-31T05:02:10.976Z,9.07
2022-10-31T05:08:32.015Z,8.68
2022-10-31T05:14:34.987Z,6.38
2022-10-31T05:20:55.527Z,6.22
2022-10-31T05:27:01.788Z,6.13
2022-10-31T05:33:04.063Z,7.05
2022-10-31T05:39:24.250Z,8.55
2022-10-31T05:45:30.920Z,8.50
2022-10-31T05:51:36.155Z,9.43
2022-10-31T05:57:39.413Z,8.25
2022-10-31T06:03:41.262Z,9.05
2022-10-31T06:09:44.885Z,9.38
2022-10-31T06:15:47.087Z,10.02
2022-10-31T06:21:49.197Z,9.60
2022-10-31T06:27:51.493Z,11.60
2022-10-31T06:33:54.968Z,10.93
2022-10-31T06:39:57.047Z,8.18
2022-10-31T06:46:02.719Z,10.48
2022-10-31T06:52:15.930Z,11.15
2022-10-31T06:58:17.898Z,11.27
2022-10-31T07:04:21.903Z,10.82
2022-10-31T07:10:25.339Z,10.45
2022-10-31T07:16:33.240Z,14.70
2022-10-31T07:22:36.790Z,13.10
2022-10-31T07:28:40.874Z,14.68
2022-10-31T07:34:47.363Z,10.52
2022-10-31T07:41:04.060Z,9.68
2022-10-31T07:47:08.193Z,11.48
2022-10-31T07:53:33.064Z,10.57
2022-10-31T07:59:45.401Z,11.30
2022-10-31T08:05:48.591Z,10.18
2022-10-31T08:12:22.960Z,8.73
2022-10-31T08:18:25.034Z,8.93
2022-10-31T08:24:27.786Z,9.85
2022-10-31T08:30:33.459Z,8.80
2022-10-31T08:37:01.256Z,9.18
2022-10-31T08:43:16.069Z,8.75
2022-10-31T08:49:18.133Z,8.50
2022-10-31T08:55:20.383Z,8.70
2022-10-31T09:01:25.079Z,8.43
2022-10-31T09:07:27.425Z,9.18
2022-10-31T09:13:29.905Z,9.45
2022-10-31T09:19:50.494Z,9.48
2022-10-31T09:25:54.206Z,9.70
2022-10-31T09:32:15.387Z,8.52
2022-10-31T09:38:22.926Z,10.27
2022-10-31T09:44:59.146Z,9.35
2022-10-31T09:51:39.373Z,10.40
2022-10-31T09:57:56.679Z,10.23
2022-10-31T10:04:47.689Z,10.05
2022-10-31T10:11:06.084Z,10.35
2022-10-31T10:17:19.771Z,11.38
2022-10-31T10:23:35.223Z,12.07
2022-10-31T10:29:44.901Z,11.88
2022-10-31T10:36:00.649Z,13.43
2022-10-31T10:42:27.215Z,12.18
2022-10-31T10:48:44.055Z,12.15
2022-10-31T10:54:54.988Z,15.23
2022-10-31T11:00:57.506Z,14.05
2022-10-31T11:07:05.209Z,15.52
2022-10-31T11:13:22.472Z,14.30
2022-10-31T11:19:27.972Z,14.90
2022-10-31T11:25:30.263Z,14.38
2022-10-31T11:31:33.989Z,15.77
2022-10-31T11:37:41.756Z,14.45
2022-10-31T11:43:57.984Z,13.80
2022-10-31T11:50:09.474Z,13.15
2022-10-31T11:56:16.833Z,14.88
2022-10-31T12:02:20.982Z,12.57
2022-10-31T12:08:30.938Z,13.70
2022-10-31T12:14:42.761Z,14.05
2022-10-31T12:21:18.836Z,13.15
2022-10-31T12:27:52.418Z,13.93
2022-10-31T12:33:57.358Z,14.95
2022-10-31T12:40:21.223Z,14.65
2022-10-31T12:46:54.620Z,14.82
2022-10-31T12:53:10.971Z,15.48
2022-10-31T12:59:18.868Z,15.80
2022-10-31T13:05:28.407Z,17.35
2022-10-31T13:11:36.511Z,16.35
2022-10-31T13:25:14.808Z,17.17
2022-10-31T13:31:16.692Z,16.60
2022-10-31T13:37:40.400Z,16.55
2022-10-31T13:44:25.163Z,17.48
2022-10-31T13:58:30.943Z,16.10
2022-10-31T14:04:51.250Z,15.02
2022-10-31T14:10:55.787Z,15.55
2022-10-31T14:16:59.040Z,14.23
2022-10-31T14:23:31.542Z,13.55
2022-10-31T14:29:36.738Z,13.38
2022-10-31T14:36:08.156Z,12.25
2022-10-31T14:57:41.047Z,10.93
2022-10-31T15:04:10.070Z,10.85
2022-10-31T15:10:23.106Z,10.65
2022-10-31T15:16:37.613Z,10.02
2022-10-31T15:22:41.056Z,10.82
2022-10-31T15:28:43.268Z,10.27
2022-10-31T15:34:45.764Z,10.68
2022-10-31T15:41:25.269Z,10.20
2022-10-31T15:47:28.236Z,10.18
2022-10-31T15:53:53.522Z,10.75
2022-10-31T15:59:56.377Z,11.45
2022-10-31T16:06:01.636Z,12.15
2022-10-31T16:12:04.876Z,12.43
2022-10-31T16:18:16.740Z,11.63
2022-10-31T16:24:27.622Z,13.30
2022-10-31T16:30:50.504Z,14.23
2022-10-31T16:36:52.608Z,14.57
2022-10-31T16:42:54.751Z,16.38
2022-10-31T16:48:56.754Z,14.65
2022-10-31T16:54:59.318Z,16.63
2022-10-31T17:01:02.922Z,16.33
2022-10-31T17:07:04.911Z,16.80
2022-10-31T17:13:10.706Z,16.08
2022-10-31T17:19:12.850Z,17.85
2022-10-31T17:25:20.166Z,17.33
2022-10-31T17:31:26.580Z,20.10
2022-10-31T17:37:28.438Z,19.77
2022-10-31T17:43:30.354Z,20.65
2022-10-31T17:49:32.201Z,22.20
2022-10-31T17:55:37.037Z,23.73
2022-10-31T18:01:39.587Z,23.27
2022-10-31T18:07:41.657Z,24.13
2022-10-31T18:13:44.219Z,25.55
2022-10-31T18:19:46.198Z,24.48
2022-10-31T18:25:48.062Z,25.42
2022-10-31T18:31:51.423Z,24.90
2022-10-31T18:37:53.338Z,25.08
2022-10-31T18:43:59.878Z,25.90
2022-10-31T18:50:01.757Z,26.00
2022-10-31T18:56:08.897Z,25.85
2022-10-31T19:02:15.145Z,27.20
2022-10-31T19:08:17.094Z,27.15
2022-10-31T19:14:19.062Z,25.95
2022-10-31T19:20:21.151Z,25.60
2022-10-31T19:26:24.919Z,26.80
2022-10-31T19:32:27.214Z,27.13
2022-10-31T19:38:29.710Z,27.33
2022-10-31T19:44:33.540Z,27.60
2022-10-31T19:50:35.412Z,26.67
2022-10-31T19:56:37.332Z,27.27
2022-10-31T20:02:39.235Z,25.52
2022-10-31T20:08:41.087Z,25.73
2022-10-31T20:14:42.949Z,24.38
2022-10-31T20:20:44.897Z,23.70
2022-10-31T20:26:46.819Z,22.77
2022-10-31T20:32:50.144Z,27.15
2022-10-31T20:38:53.136Z,27.13
2022-10-31T20:44:54.948Z,31.27
2022-10-31T20:51:01.390Z,35.55
2022-10-31T20:57:03.433Z,34.03
2022-10-31T21:03:05.359Z,36.55
2022-10-31T21:09:08.037Z,36.33
2022-10-31T21:15:11.405Z,36.78
2022-10-31T21:27:57.379Z,42.28
2022-10-31T21:33:59.287Z,43.15
2022-10-31T21:40:01.267Z,45.33
2022-10-31T21:46:11.933Z,46.13
2022-10-31T21:52:13.884Z,45.92
2022-10-31T22:06:00.537Z,39.28
2022-10-31T22:12:23.283Z,40.47
2022-10-31T22:18:31.432Z,41.72
2022-10-31T22:24:37.418Z,40.78
2022-10-31T22:30:50.895Z,41.30
2022-10-31T22:36:55.285Z,40.95
2022-10-31T22:42:57.208Z,43.55
2022-10-31T22:49:05.574Z,44.50
2022-10-31T22:55:08.033Z,43.45
2022-10-31T23:01:12.122Z,48.47
2022-10-31T23:07:14.827Z,51.33
2022-10-31T23:13:36.507Z,52.95
2022-10-31T23:19:38.436Z,55.67
2022-10-31T23:25:58.785Z,57.47
2022-10-31T23:32:00.985Z,58.60
2022-10-31T23:38:03.142Z,59.50
2022-10-31T23:44:05.434Z,58.30
2022-10-31T23:50:08.026Z,60.80
2022-10-31T23:56:09.975Z,62.33
